This is the latest recevied weather packets stored in our database for station/object KB3KAV. If no packets are shown the sender has not sent any weather packets the latest 10 day(s).
| Time | Temp. | Humidity | Pressure | Rain* | Wind** | Luminosity | Snow |
|---|---|---|---|---|---|---|---|
| 1777910804 | 17.78° C | 37% | 1039.9 hPa | 0 mm | - | 639 W/m² | - |
| 1777910203 | 17.78° C | 39% | 1040 hPa | 0 mm | - | 640 W/m² | - |
| 1777909603 | 17.78° C | 38% | 1040.1 hPa | 0 mm | - | 668 W/m² | - |
| 1777908998 | 17.78° C | 38% | 1040.1 hPa | 0 mm | - | 640 W/m² | - |
| 1777908393 | 16.67° C | 38% | 1040.4 hPa | 0 mm | - | 619 W/m² | - |
| 1777907791 | 17.78° C | 37% | 1040.5 hPa | 0 mm | - | 622 W/m² | - |
| 1777907190 | 16.11° C | 41% | 1040.6 hPa | 0 mm | - | 399 W/m² | - |
| 1777906584 | 16.11° C | 40% | 1040.8 hPa | 0 mm | - | 564 W/m² | - |
| 1777905982 | 16.11° C | 39% | 1041 hPa | 0 mm | - | 629 W/m² | - |
| 1777905381 | 15.56° C | 39% | 1040.8 hPa | 0 mm | - | 592 W/m² | - |
| 1777904776 | 15.56° C | 40% | 1041 hPa | 0 mm | - | 638 W/m² | - |
| 1777904175 | 15.56° C | 38% | 1040.8 hPa | 0 mm | - | 605 W/m² | - |
| 1777903575 | 15° C | 41% | 1041 hPa | 0 mm | - | 565 W/m² | - |
| 1777902973 | 15° C | 45% | 1041.2 hPa | 0 mm | - | 526 W/m² | - |
| 1777902373 | 13.89° C | 44% | 1041.2 hPa | 0 mm | - | 295 W/m² | - |
| 1777901768 | 13.33° C | 43% | 1041.2 hPa | 0 mm | - | 471 W/m² | - |
| 1777901163 | 13.33° C | 44% | 1041.3 hPa | 0 mm | - | 400 W/m² | - |
| 1777900563 | 12.78° C | 47% | 1041.5 hPa | 0 mm | - | 368 W/m² | - |
| 1777899962 | 11.67° C | 52% | 1041.7 hPa | 0 mm | - | 146 W/m² | - |
| 1777899357 | 10° C | 70% | 1041.5 hPa | 0 mm | - | 200 W/m² | - |
| 1777898757 | 8.89° C | 72% | 1041.8 hPa | 0 mm | - | 167 W/m² | - |
| 1777898153 | 7.78° C | 72% | 1041.7 hPa | 0 mm | - | 157 W/m² | - |
| 1777897551 | 7.22° C | 75% | 1042 hPa | 0 mm | - | 151 W/m² | - |
| 1777896949 | 5.56° C | 79% | 1042.1 hPa | 0 mm | - | 143 W/m² | - |
| 1777896349 | 5° C | 82% | 1042.1 hPa | 0 mm | - | 122 W/m² | - |
* Rain latest hour (hover to see other rain measurements)
** Current wind speed in m/s (hover to see current wind gust speed)